Time;durP1;ratioP1;P1;durP2;ratioP2;P2;SDS_P1;SDS_P2;PMS_P1;PMS_P2;Temp;Humidity;BMP_temperature;BMP_pressure;BME280_temperature;BME280_humidity;BME280_pressure;Samples;Min_cycle;Max_cycle;Signal;HPM_P1;HPM_P2
2022/08/06 00:00:43;;;;;;;2.90;1.67;;;;;;;26.91;46.44;100813.34;5090810;28;20748;-63
2022/08/06 00:03:08;;;;;;;2.60;1.50;;;;;;;26.96;46.07;100812.06;5090838;28;20190;-63
2022/08/06 00:05:34;;;;;;;3.90;1.73;;;;;;;26.88;46.67;100814.19;5090796;28;20178;-63
2022/08/06 00:07:59;;;;;;;2.90;1.70;;;;;;;26.90;46.24;100811.69;5090635;28;20284;-63
2022/08/06 00:10:25;;;;;;;2.90;1.47;;;;;;;26.88;45.79;100822.88;5090455;28;20291;-63
2022/08/06 00:12:51;;;;;;;3.50;1.83;;;;;;;26.80;46.33;100814.69;5089302;28;20611;-63
2022/08/06 00:15:19;;;;;;;4.50;1.80;;;;;;;26.89;46.45;100817.94;5072552;28;20424;-63
2022/08/06 00:17:45;;;;;;;2.83;1.77;;;;;;;26.89;46.26;100815.03;5093835;28;20193;-63
2022/08/06 00:20:12;;;;;;;3.83;1.87;;;;;;;26.95;46.60;100814.13;5094405;28;20948;-63
2022/08/06 00:22:37;;;;;;;2.53;1.40;;;;;;;27.01;46.46;100812.44;5094377;28;20632;-63
2022/08/06 00:25:04;;;;;;;3.37;1.80;;;;;;;26.89;46.40;100815.03;5094422;28;20503;-63
2022/08/06 00:27:29;;;;;;;3.27;1.70;;;;;;;26.87;46.21;100821.25;5094451;28;20174;-63
2022/08/06 00:29:55;;;;;;;3.03;1.70;;;;;;;26.99;46.02;100825.72;5093064;28;20489;-63
2022/08/06 00:32:20;;;;;;;3.73;1.87;;;;;;;26.85;45.65;100826.63;5094450;28;20181;-63
2022/08/06 00:34:45;;;;;;;5.90;2.00;;;;;;;26.90;45.60;100831.97;5089276;28;20179;-63
2022/08/06 00:37:11;;;;;;;3.20;1.57;;;;;;;26.93;45.92;100830.28;5073651;28;20175;-63
2022/08/06 00:39:36;;;;;;;3.70;1.43;;;;;;;26.69;46.38;100822.63;5072351;28;20203;-63
2022/08/06 00:42:02;;;;;;;3.70;1.40;;;;;;;26.82;45.80;100824.59;5072844;28;20171;-63
2022/08/06 00:44:27;;;;;;;4.83;1.63;;;;;;;26.84;46.04;100824.97;5088488;28;20190;-63
2022/08/06 00:46:53;;;;;;;2.30;1.40;;;;;;;26.86;46.06;100825.41;5077617;28;20179;-63
2022/08/06 00:49:18;;;;;;;3.97;1.90;;;;;;;26.86;46.16;100819.59;5079643;28;20227;-63
2022/08/06 00:51:44;;;;;;;5.13;1.80;;;;;;;26.94;45.88;100824.06;5092886;28;20190;-63
2022/08/06 00:54:10;;;;;;;6.50;1.90;;;;;;;26.82;46.20;100833.28;5093439;28;20700;-63
2022/08/06 00:56:35;;;;;;;5.40;1.60;;;;;;;26.85;46.19;100835.31;5093173;28;20648;-63
2022/08/06 00:59:01;;;;;;;2.70;1.20;;;;;;;26.85;45.96;100837.41;5093028;28;20194;-63
2022/08/06 01:01:26;;;;;;;3.87;1.67;;;;;;;26.78;45.51;100832.47;5093042;28;20210;-63
2022/08/06 01:03:52;;;;;;;3.00;1.60;;;;;;;26.65;45.67;100834.22;5093151;28;20178;-63
2022/08/06 01:06:17;;;;;;;4.30;1.50;;;;;;;26.83;45.73;100839.88;5093229;28;20186;-63
2022/08/06 01:08:42;;;;;;;3.13;1.60;;;;;;;26.90;45.25;100840.66;5092921;28;20166;-63
2022/08/06 01:11:08;;;;;;;2.30;1.30;;;;;;;26.87;45.00;100841.53;5092590;28;20237;-63
2022/08/06 01:13:33;;;;;;;2.83;1.53;;;;;;;26.94;45.08;100841.47;5093602;28;20664;-63
2022/08/06 01:16:12;;;;;;;5.53;1.80;;;;;;;26.81;45.55;100839.50;5093463;28;20171;-63
2022/08/06 01:18:47;;;;;;;3.17;1.70;;;;;;;26.85;45.36;100838.22;5093320;28;20205;-63
2022/08/06 01:21:33;;;;;;;4.77;1.53;;;;;;;26.80;45.13;100835.75;5075849;28;20411;-63
2022/08/06 01:24:36;;;;;;;4.20;1.70;;;;;;;26.73;44.80;100847.41;5093516;28;20419;-63
2022/08/06 01:27:32;;;;;;;3.23;1.63;;;;;;;26.76;45.19;100846.59;5091459;28;20733;-63
2022/08/06 01:30:05;;;;;;;3.80;1.53;;;;;;;26.71;45.23;100847.03;5072665;28;20410;-63
2022/08/06 01:32:34;;;;;;;3.03;1.60;;;;;;;26.78;45.34;100855.66;5071791;28;20413;-63
2022/08/06 01:35:05;;;;;;;4.67;1.97;;;;;;;26.86;45.37;100854.38;5055138;28;20787;-63
2022/08/06 01:37:54;;;;;;;4.23;1.60;;;;;;;26.76;45.02;100852.38;5091232;28;20424;-63
2022/08/06 01:40:24;;;;;;;5.43;1.40;;;;;;;26.85;45.18;100851.91;5055302;28;20988;-63
2022/08/06 01:42:49;;;;;;;5.77;1.90;;;;;;;26.81;45.24;100849.03;5080094;28;20485;-63
2022/08/06 01:45:16;;;;;;;2.83;1.73;;;;;;;26.77;45.06;100856.09;5092836;28;20467;-64
2022/08/06 01:47:43;;;;;;;4.10;1.40;;;;;;;26.80;45.07;100858.13;5090867;28;20170;-63
2022/08/06 01:50:09;;;;;;;2.30;1.23;;;;;;;26.80;44.81;100861.84;5090572;28;20792;-63
2022/08/06 01:52:36;;;;;;;3.80;1.33;;;;;;;26.83;44.98;100861.00;5090662;28;20408;-63
2022/08/06 01:55:02;;;;;;;3.03;1.90;;;;;;;26.85;44.93;100858.50;5090480;28;20484;-63
2022/08/06 01:57:27;;;;;;;4.00;1.57;;;;;;;26.86;44.95;100857.28;5090062;28;20428;-63
2022/08/06 01:59:53;;;;;;;3.63;1.90;;;;;;;26.87;44.68;100861.81;5074072;28;20571;-63
2022/08/06 02:02:22;;;;;;;3.93;1.50;;;;;;;26.87;44.68;100858.09;5091145;28;20706;-63
2022/08/06 02:04:49;;;;;;;3.60;1.50;;;;;;;26.84;44.51;100865.56;5091174;28;20173;-63
2022/08/06 02:07:15;;;;;;;3.73;1.67;;;;;;;26.84;44.13;100862.66;5091085;28;20412;-63
2022/08/06 02:09:41;;;;;;;6.50;1.63;;;;;;;26.85;44.93;100878.78;5074300;28;20416;-63
2022/08/06 02:12:10;;;;;;;3.30;1.70;;;;;;;26.88;45.04;100865.53;5090609;28;20233;-63
2022/08/06 02:14:39;;;;;;;4.87;1.80;;;;;;;26.88;44.91;100865.53;5091554;28;20459;-63
2022/08/06 02:17:04;;;;;;;3.70;1.77;;;;;;;26.75;45.27;100868.09;5091027;28;20447;-63
2022/08/06 02:19:30;;;;;;;3.23;1.63;;;;;;;26.80;44.51;100864.75;5091442;28;20869;-63
2022/08/06 02:21:55;;;;;;;3.40;1.27;;;;;;;26.83;44.27;100858.13;5089984;28;20174;-63
2022/08/06 02:24:22;;;;;;;4.27;2.00;;;;;;;26.82;44.08;100862.25;5073270;28;20220;-63
2022/08/06 02:26:48;;;;;;;3.83;1.93;;;;;;;26.83;44.61;100869.69;5073381;28;20204;-63
2022/08/06 02:29:14;;;;;;;5.20;1.60;;;;;;;26.80;44.64;100869.72;5090714;28;20903;-63
2022/08/06 02:31:41;;;;;;;2.93;1.60;;;;;;;26.82;44.59;100873.00;5090679;28;20178;-63
2022/08/06 02:34:07;;;;;;;3.77;1.43;;;;;;;26.82;44.53;100868.06;5082925;28;20421;-63
2022/08/06 02:36:57;;;;;;;2.30;1.30;;;;;;;26.85;44.67;100863.50;5074311;28;20775;-63
2022/08/06 02:39:28;;;;;;;4.10;1.40;;;;;;;26.81;44.26;100871.38;5060102;28;20207;-63
2022/08/06 02:42:05;;;;;;;3.17;1.40;;;;;;;26.68;44.60;100864.41;5069991;28;20412;-63
2022/08/06 02:45:04;;;;;;;5.17;1.90;;;;;;;26.74;44.04;100871.44;5080742;28;20415;-63
2022/08/06 02:47:37;;;;;;;4.20;1.70;;;;;;;26.60;44.79;100869.41;5069717;28;20437;-63
2022/08/06 02:50:04;;;;;;;4.90;1.37;;;;;;;26.58;44.24;100862.41;5070267;28;20999;-63
2022/08/06 02:52:39;;;;;;;3.13;1.70;;;;;;;26.70;44.67;100865.63;5085562;28;20449;-63
2022/08/06 02:55:11;;;;;;;2.90;1.50;;;;;;;26.69;44.65;100869.78;5070539;28;20471;-63
2022/08/06 02:57:39;;;;;;;3.37;2.00;;;;;;;26.71;43.85;100870.22;5070468;28;20422;-63
2022/08/06 03:00:06;;;;;;;4.50;1.93;;;;;;;26.67;44.03;100872.28;5085949;28;21213;-63
2022/08/06 03:02:32;;;;;;;3.20;1.40;;;;;;;26.67;44.34;100878.09;5086260;28;20505;-63
2022/08/06 03:04:57;;;;;;;5.10;1.77;;;;;;;26.71;44.18;100878.06;5086784;28;20420;-63
2022/08/06 03:07:27;;;;;;;4.77;1.90;;;;;;;26.63;43.87;100873.53;5086669;28;20417;-63
2022/08/06 03:09:53;;;;;;;5.53;1.73;;;;;;;26.63;43.90;100873.53;5086827;28;20764;-63
2022/08/06 03:12:18;;;;;;;3.97;1.73;;;;;;;26.63;43.94;100876.44;5073912;28;20444;-63
2022/08/06 03:14:43;;;;;;;3.20;1.60;;;;;;;26.46;44.34;100875.28;5091343;28;20166;-63
2022/08/06 03:17:11;;;;;;;3.87;1.67;;;;;;;26.49;44.36;100882.31;5090053;28;20202;-63
2022/08/06 03:19:36;;;;;;;3.63;1.57;;;;;;;26.62;44.25;100887.22;5091022;28;20200;-63
2022/08/06 03:22:02;;;;;;;3.30;1.70;;;;;;;26.63;44.54;100883.06;5091193;28;20413;-63
2022/08/06 03:24:27;;;;;;;2.70;1.60;;;;;;;26.64;44.43;100886.81;5090182;28;20185;-63
2022/08/06 03:26:56;;;;;;;2.53;1.63;;;;;;;26.65;44.35;100885.56;5091377;28;20178;-63
2022/08/06 03:29:23;;;;;;;3.27;1.60;;;;;;;26.62;44.28;100887.22;5091184;28;20739;-63
2022/08/06 03:31:48;;;;;;;3.10;1.70;;;;;;;26.66;44.39;100895.88;5073258;28;20776;-63
2022/08/06 03:34:14;;;;;;;5.87;1.30;;;;;;;26.65;44.56;100886.34;5090860;28;20409;-63
2022/08/06 03:36:39;;;;;;;4.47;1.70;;;;;;;26.65;43.88;100894.25;5081584;28;20186;-63
2022/08/06 03:39:06;;;;;;;4.23;1.63;;;;;;;26.67;43.96;100895.47;5073251;28;20241;-63
2022/08/06 03:41:34;;;;;;;3.93;1.50;;;;;;;26.65;44.14;100883.47;5070909;28;20175;-63
2022/08/06 03:43:59;;;;;;;5.60;1.70;;;;;;;26.62;44.49;100895.91;5069606;28;20932;-63
2022/08/06 03:46:46;;;;;;;3.87;1.57;;;;;;;26.60;44.13;100897.59;5087226;28;20415;-63
2022/08/06 03:49:33;;;;;;;5.87;1.80;;;;;;;26.62;43.99;100904.59;5088906;28;20200;-63
2022/08/06 03:52:00;;;;;;;4.50;1.60;;;;;;;26.63;44.09;100890.94;5091098;28;20920;-63
2022/08/06 03:54:27;;;;;;;3.10;1.73;;;;;;;26.47;43.94;100902.16;5092909;28;20412;-63
2022/08/06 03:56:52;;;;;;;4.23;1.60;;;;;;;26.58;44.67;100894.25;5093426;28;20557;-63
2022/08/06 03:59:18;;;;;;;3.37;1.60;;;;;;;26.58;44.66;100900.91;5076194;28;20448;-63
2022/08/06 04:01:43;;;;;;;3.33;1.70;;;;;;;26.64;44.03;100898.41;5076898;28;20189;-63
2022/08/06 04:04:09;;;;;;;3.20;1.60;;;;;;;26.62;44.29;100904.59;5094324;28;20481;-63
2022/08/06 04:06:34;;;;;;;3.87;1.60;;;;;;;26.65;44.42;100902.94;5093369;28;20668;-63
2022/08/06 04:09:00;;;;;;;4.73;1.80;;;;;;;26.63;44.44;100902.50;5075419;28;20221;-63
2022/08/06 04:11:25;;;;;;;4.43;1.57;;;;;;;26.56;44.43;100911.25;5093504;28;20252;-63
2022/08/06 04:13:51;;;;;;;6.43;1.90;;;;;;;26.56;44.17;100912.09;5092943;28;20547;-63
2022/08/06 04:16:16;;;;;;;5.30;1.90;;;;;;;26.57;44.03;100912.91;5094704;28;20166;-63
2022/08/06 04:18:42;;;;;;;2.90;1.63;;;;;;;26.55;44.19;100909.56;5094674;28;20228;-63
2022/08/06 04:21:16;;;;;;;5.13;1.97;;;;;;;26.58;44.49;100926.97;5076362;28;20179;-63
2022/08/06 04:23:42;;;;;;;2.90;1.60;;;;;;;26.56;44.00;100931.53;5094259;28;20653;-62
2022/08/06 04:26:08;;;;;;;4.77;1.67;;;;;;;26.53;44.35;100920.75;5094491;28;20416;-63
2022/08/06 04:28:35;;;;;;;2.63;1.47;;;;;;;26.57;44.48;100925.31;5094070;28;20404;-63
2022/08/06 04:31:01;;;;;;;2.93;1.63;;;;;;;26.57;44.58;100930.28;5078600;28;20651;-63
2022/08/06 04:33:26;;;;;;;4.80;1.60;;;;;;;26.59;44.31;100934.41;5074185;28;20428;-63
2022/08/06 04:35:52;;;;;;;7.67;1.80;;;;;;;26.61;44.42;100933.97;5073164;28;20187;-62
2022/08/06 04:38:20;;;;;;;2.30;1.40;;;;;;;26.57;44.05;100930.28;5075127;28;20186;-62
2022/08/06 04:40:46;;;;;;;3.50;1.73;;;;;;;26.47;44.70;100936.91;5072635;28;20266;-62
2022/08/06 04:43:11;;;;;;;2.50;1.30;;;;;;;26.51;44.79;100940.63;5073635;28;20440;-62
2022/08/06 04:45:38;;;;;;;3.10;1.40;;;;;;;26.53;43.94;100936.06;5084762;28;20204;-62
2022/08/06 04:48:03;;;;;;;5.17;1.87;;;;;;;26.53;44.50;100938.97;5094035;28;20925;-62
2022/08/06 04:50:30;;;;;;;3.53;1.37;;;;;;;26.51;44.14;100949.31;5092947;28;20417;-62
2022/08/06 04:53:14;;;;;;;5.10;1.53;;;;;;;26.48;44.37;100947.25;5094060;28;20182;-62
2022/08/06 04:55:40;;;;;;;3.67;1.90;;;;;;;26.45;43.82;100951.81;5093786;28;21072;-62
2022/08/06 04:58:06;;;;;;;4.40;1.60;;;;;;;26.38;44.09;100957.63;5093673;28;20455;-62
2022/08/06 05:00:33;;;;;;;3.70;1.90;;;;;;;26.45;43.78;100960.50;5093787;28;20558;-62
2022/08/06 05:02:58;;;;;;;9.03;2.00;;;;;;;26.49;44.37;100961.31;5092581;28;20417;-62
2022/08/06 05:05:24;;;;;;;5.00;1.80;;;;;;;26.50;43.63;100965.84;5093615;28;20455;-62
2022/08/06 05:07:51;;;;;;;3.17;1.30;;;;;;;26.42;44.03;100963.41;5092479;28;20649;-62
2022/08/06 05:10:17;;;;;;;3.13;1.50;;;;;;;26.46;43.89;100970.00;5074989;28;20218;-62
2022/08/06 05:12:45;;;;;;;8.90;1.40;;;;;;;26.45;44.08;100972.06;5093041;28;20481;-62
2022/08/06 05:15:31;;;;;;;6.47;1.70;;;;;;;26.41;43.71;100971.28;5091430;28;20198;-62
2022/08/06 05:18:03;;;;;;;3.90;1.90;;;;;;;26.47;44.13;100974.56;5091653;28;20760;-62
2022/08/06 05:20:31;;;;;;;4.40;1.87;;;;;;;26.48;43.42;100974.16;5075613;28;20464;-62
2022/08/06 05:23:00;;;;;;;2.90;1.40;;;;;;;26.46;43.78;100981.59;5090995;28;20421;-62
2022/08/06 05:25:26;;;;;;;5.57;1.80;;;;;;;26.46;43.60;100979.53;5074381;28;20921;-62
2022/08/06 05:27:51;;;;;;;2.20;1.20;;;;;;;26.48;43.95;100984.88;5092382;28;20424;-62
2022/08/06 05:30:17;;;;;;;5.17;1.90;;;;;;;26.33;44.22;100981.22;5091984;28;20182;-62
2022/08/06 05:32:43;;;;;;;4.37;1.33;;;;;;;26.39;43.94;100988.22;5092286;28;20174;-62
2022/08/06 05:35:08;;;;;;;4.70;1.63;;;;;;;26.44;43.21;100975.41;5078574;28;20175;-62
2022/08/06 05:37:34;;;;;;;3.70;1.30;;;;;;;26.45;43.59;100982.84;5071988;28;20872;-62
2022/08/06 05:39:59;;;;;;;4.63;1.30;;;;;;;26.45;43.65;100983.66;5071938;28;20195;-62
2022/08/06 05:42:25;;;;;;;2.80;1.27;;;;;;;26.40;43.87;100989.06;5072182;28;20183;-62
2022/08/06 05:44:50;;;;;;;6.30;1.73;;;;;;;26.32;43.59;100994.06;5074148;28;20175;-62
2022/08/06 05:47:19;;;;;;;3.40;1.57;;;;;;;26.18;43.88;100991.19;5090816;28;20178;-62
2022/08/06 05:49:47;;;;;;;3.80;1.40;;;;;;;26.23;44.04;100992.81;5090417;28;20178;-62
2022/08/06 05:52:29;;;;;;;3.20;1.43;;;;;;;26.33;43.56;100995.69;5090981;28;20416;-62
2022/08/06 05:55:16;;;;;;;2.63;1.13;;;;;;;26.01;43.90;101002.78;5091672;28;20413;-62
2022/08/06 05:57:51;;;;;;;5.70;1.60;;;;;;;25.99;44.39;101000.31;5090143;28;21102;-62
2022/08/06 06:00:18;;;;;;;2.90;1.30;;;;;;;26.08;44.10;101006.50;5089989;28;20460;-62
2022/08/06 06:02:47;;;;;;;7.37;1.57;;;;;;;26.06;43.59;101011.06;5090250;28;20442;-62
2022/08/06 06:05:12;;;;;;;3.93;1.37;;;;;;;25.96;43.92;101009.84;5090098;28;20416;-62
2022/08/06 06:07:38;;;;;;;3.27;1.20;;;;;;;25.82;43.77;101014.75;5073472;28;20420;-62
2022/08/06 06:10:05;;;;;;;3.53;1.13;;;;;;;25.80;44.42;101012.28;5091994;28;20234;-62
2022/08/06 06:12:31;;;;;;;5.13;1.40;;;;;;;26.13;43.36;101020.56;5092296;28;20201;-62
2022/08/06 06:14:56;;;;;;;3.33;1.47;;;;;;;26.17;43.47;101020.56;5091814;28;20470;-62
2022/08/06 06:17:27;;;;;;;6.87;1.57;;;;;;;26.25;43.14;101022.19;5091128;28;20416;-62
2022/08/06 06:20:15;;;;;;;4.00;1.30;;;;;;;25.84;43.77;101024.69;5091748;28;20693;-62
2022/08/06 06:23:07;;;;;;;6.57;1.40;;;;;;;25.99;44.01;101025.56;5071352;28;20476;-62
2022/08/06 06:25:36;;;;;;;3.63;1.30;;;;;;;26.10;43.45;101032.97;5064149;28;20745;-62
2022/08/06 06:28:34;;;;;;;2.50;1.03;;;;;;;26.02;43.71;101030.50;5053367;28;20432;-62
2022/08/06 06:31:05;;;;;;;6.10;1.37;;;;;;;26.13;43.12;101026.34;5070964;28;20406;-62
2022/08/06 06:33:41;;;;;;;4.00;1.50;;;;;;;26.18;43.73;101025.94;5071947;28;20971;-62
2022/08/06 06:36:16;;;;;;;4.43;1.23;;;;;;;26.16;43.72;101018.91;5081844;28;20972;-62
2022/08/06 06:38:53;;;;;;;4.63;1.47;;;;;;;25.83;43.69;101017.25;5073552;28;20447;-62
2022/08/06 06:41:23;;;;;;;4.43;1.23;;;;;;;26.02;43.73;101019.75;5071808;28;20424;-62
2022/08/06 06:44:22;;;;;;;5.40;1.53;;;;;;;26.07;43.65;101022.22;5067080;28;20425;-62
2022/08/06 06:46:47;;;;;;;2.87;1.13;;;;;;;26.23;43.23;101022.63;5081821;28;20436;-62
2022/08/06 06:49:17;;;;;;;2.73;1.03;;;;;;;26.17;43.17;101014.75;5091228;28;20417;-62
2022/08/06 06:51:53;;;;;;;4.60;1.53;;;;;;;25.77;43.64;101016.00;5089759;28;20170;-62
2022/08/06 06:54:22;;;;;;;2.60;1.40;;;;;;;25.90;43.63;101014.34;5089929;28;20489;-62
2022/08/06 06:56:48;;;;;;;4.47;1.63;;;;;;;26.11;43.31;101017.28;5090656;28;20940;-62
2022/08/06 06:59:24;;;;;;;3.33;1.40;;;;;;;26.07;43.63;101024.28;5091100;28;20460;-62
2022/08/06 07:01:50;;;;;;;4.40;1.17;;;;;;;26.04;43.12;101028.84;5090061;28;20786;-62
2022/08/06 07:04:16;;;;;;;3.80;1.57;;;;;;;26.18;43.30;101022.19;5090191;28;20416;-62
2022/08/06 07:06:44;;;;;;;5.00;1.63;;;;;;;26.10;43.29;101027.16;5091485;28;20265;-62
2022/08/06 07:09:11;;;;;;;2.77;1.40;;;;;;;25.90;43.99;101028.00;5090178;28;20420;-62
2022/08/06 07:11:38;;;;;;;2.23;1.10;;;;;;;26.10;43.38;101027.16;5073332;28;20503;-62
2022/08/06 07:14:03;;;;;;;3.00;1.90;;;;;;;25.91;43.60;101032.53;5090081;28;20431;-62
2022/08/06 07:16:29;;;;;;;3.53;1.80;;;;;;;26.01;43.53;101029.69;5091197;28;20412;-61
2022/08/06 07:18:54;;;;;;;6.43;1.50;;;;;;;26.03;43.46;101032.13;5072904;28;20765;-61
2022/08/06 07:21:20;;;;;;;3.97;1.77;;;;;;;26.14;43.63;101038.78;5089349;28;20185;-62
2022/08/06 07:23:48;;;;;;;5.83;2.47;;;;;;;26.20;43.42;101032.13;5091279;28;20178;-62
2022/08/06 07:26:14;;;;;;;4.80;1.60;;;;;;;25.93;43.83;101032.97;5090618;28;20257;-62
2022/08/06 07:28:40;;;;;;;3.60;1.63;;;;;;;26.03;43.52;101035.88;5089922;28;20511;-62
2022/08/06 07:31:05;;;;;;;3.10;1.83;;;;;;;26.13;43.78;101039.97;5089712;28;20939;-62
2022/08/06 07:33:35;;;;;;;3.23;1.30;;;;;;;26.05;44.25;101038.34;5090042;28;20206;-62
2022/08/06 07:36:00;;;;;;;4.23;1.47;;;;;;;25.93;44.75;101039.59;5086929;28;20917;-62
2022/08/06 07:38:29;;;;;;;5.83;1.80;;;;;;;25.97;43.99;101033.81;5069581;28;20420;-62
2022/08/06 07:40:57;;;;;;;4.00;1.67;;;;;;;26.13;44.03;101040.81;5052719;28;20591;-62
2022/08/06 07:43:25;;;;;;;4.27;1.47;;;;;;;26.09;43.92;101036.28;5084028;28;20927;-62
2022/08/06 07:45:51;;;;;;;3.40;1.60;;;;;;;26.04;44.62;101036.72;5084891;28;20460;-62
2022/08/06 07:48:19;;;;;;;3.40;1.90;;;;;;;26.04;44.34;101037.53;5069588;28;20903;-62
2022/08/06 07:50:48;;;;;;;3.57;1.57;;;;;;;26.14;44.14;101039.56;5069520;28;20494;-62
2022/08/06 07:53:13;;;;;;;3.37;1.60;;;;;;;26.14;44.36;101025.09;5072200;28;20425;-62
2022/08/06 07:55:38;;;;;;;3.93;1.87;;;;;;;26.03;44.40;101041.66;5069337;28;20413;-62
2022/08/06 07:58:04;;;;;;;2.47;1.30;;;;;;;26.13;44.13;101031.31;5079438;28;20174;-62
2022/08/06 08:00:33;;;;;;;2.17;1.30;;;;;;;26.13;43.92;101037.94;5068504;28;20203;-62
2022/08/06 08:08:27;;;;;;;3.67;1.53;;;;;;;26.15;44.51;101029.63;5082344;28;20429;-62
2022/08/06 08:10:53;;;;;;;5.23;1.90;;;;;;;26.01;44.37;101023.91;5068302;28;20481;-62
2022/08/06 08:13:19;;;;;;;3.50;1.83;;;;;;;25.97;44.48;101023.06;5077722;28;20194;-62
2022/08/06 08:15:46;;;;;;;3.13;1.97;;;;;;;25.73;45.03;101028.81;5069738;28;20413;-62
2022/08/06 08:18:11;;;;;;;3.90;1.67;;;;;;;25.79;44.54;101027.97;5068592;28;20618;-62
2022/08/06 08:20:37;;;;;;;6.87;1.70;;;;;;;25.72;44.59;101028.00;5068363;28;20468;-62
2022/08/06 08:23:04;;;;;;;8.67;2.10;;;;;;;25.88;44.46;101033.34;5086331;28;20296;-62
2022/08/06 08:25:29;;;;;;;3.77;1.20;;;;;;;25.94;44.26;101028.84;5089367;28;20424;-62
2022/08/06 08:27:55;;;;;;;4.53;1.50;;;;;;;25.87;44.38;101026.75;5081203;28;20923;-62
2022/08/06 08:30:20;;;;;;;5.67;1.60;;;;;;;25.82;44.81;101027.16;5070131;28;20182;-62
2022/08/06 08:32:46;;;;;;;1.97;1.23;;;;;;;25.89;44.15;101026.34;5072619;28;20186;-62
2022/08/06 08:35:15;;;;;;;3.20;1.63;;;;;;;25.78;43.01;101034.19;5068831;28;20561;-62
2022/08/06 08:37:40;;;;;;;3.53;1.20;;;;;;;25.85;43.91;101034.19;5071223;28;20193;-62
2022/08/06 08:40:06;;;;;;;4.13;1.33;;;;;;;26.02;43.94;101030.50;5073733;28;20488;-62
2022/08/06 08:42:46;;;;;;;3.87;1.30;;;;;;;25.96;43.31;101035.03;5095764;28;20664;-62
2022/08/06 08:45:12;;;;;;;7.33;1.60;;;;;;;26.07;42.86;101033.81;5092733;28;20813;-62
2022/08/06 08:47:39;;;;;;;3.87;1.33;;;;;;;26.08;43.29;101034.63;5077403;28;20429;-62
2022/08/06 08:50:05;;;;;;;2.70;1.30;;;;;;;25.98;43.33;101029.66;5084354;28;20424;-62
2022/08/06 08:52:32;;;;;;;3.80;1.70;;;;;;;26.12;43.76;101027.59;5092718;28;20467;-63
2022/08/06 08:55:00;;;;;;;3.50;1.67;;;;;;;26.06;43.06;101032.16;5092944;28;20205;-62
2022/08/06 08:57:27;;;;;;;3.80;1.70;;;;;;;26.10;43.23;101035.03;5091840;28;20413;-62
2022/08/06 08:59:53;;;;;;;6.43;1.80;;;;;;;26.05;42.98;101036.28;5094267;28;20876;-62
2022/08/06 09:02:18;;;;;;;3.37;1.60;;;;;;;26.15;42.88;101034.63;5092429;28;20426;-62
2022/08/06 09:04:44;;;;;;;4.47;1.87;;;;;;;26.16;42.75;101031.31;5093521;28;20178;-62
2022/08/06 09:07:09;;;;;;;2.70;1.40;;;;;;;26.13;43.19;101035.03;5093760;28;20747;-62
2022/08/06 09:09:39;;;;;;;3.03;1.40;;;;;;;26.27;42.74;101037.06;5089253;28;20183;-62
2022/08/06 09:12:05;;;;;;;6.97;1.97;;;;;;;26.18;42.68;101034.63;5071916;28;20243;-62
2022/08/06 09:14:31;;;;;;;3.80;1.30;;;;;;;26.07;42.65;101039.59;5073359;28;20436;-62
2022/08/06 09:16:57;;;;;;;2.57;1.50;;;;;;;26.09;42.60;101033.41;5073431;28;20409;-62
2022/08/06 09:19:23;;;;;;;4.40;1.40;;;;;;;26.09;42.20;101028.41;5071872;28;20658;-62
2022/08/06 09:21:48;;;;;;;7.40;1.10;;;;;;;26.11;42.38;101028.84;5073191;28;20413;-62
2022/08/06 09:24:14;;;;;;;3.33;1.13;;;;;;;26.17;41.99;101024.28;5073153;28;20183;-62
2022/08/06 09:27:00;;;;;;;4.30;1.33;;;;;;;26.00;41.65;101019.31;5070483;28;20792;-62
2022/08/06 09:29:25;;;;;;;4.40;1.80;;;;;;;26.04;42.36;101019.34;5072541;28;20167;-62
2022/08/06 09:31:51;;;;;;;3.50;1.23;;;;;;;26.11;42.00;101028.84;5070866;28;20432;-62
2022/08/06 09:34:16;;;;;;;4.90;1.90;;;;;;;26.14;41.92;101018.50;5069645;28;20187;-62
2022/08/06 09:36:42;;;;;;;4.70;1.67;;;;;;;26.20;41.91;101020.53;5070870;28;20211;-62
2022/08/06 09:39:08;;;;;;;6.77;1.40;;;;;;;26.18;41.63;101017.25;5071017;28;20199;-62
2022/08/06 09:41:34;;;;;;;3.40;1.60;;;;;;;26.18;41.13;101017.25;5072063;28;20494;-62
2022/08/06 09:44:01;;;;;;;4.07;1.30;;;;;;;26.19;41.72;101021.78;5085783;28;20183;-62
2022/08/06 09:46:37;;;;;;;3.70;1.70;;;;;;;26.30;41.79;101027.56;5066327;28;20432;-62
2022/08/06 09:49:02;;;;;;;7.10;1.70;;;;;;;26.24;41.91;101030.06;5082160;28;20494;-62
2022/08/06 09:51:28;;;;;;;2.93;1.40;;;;;;;26.19;41.86;101018.88;5071144;28;20532;-62
2022/08/06 09:53:54;;;;;;;4.43;1.80;;;;;;;26.23;41.25;101019.72;5070648;28;20189;-62
2022/08/06 09:56:19;;;;;;;3.73;1.43;;;;;;;26.28;41.38;101027.97;5072087;28;20595;-62
2022/08/06 09:58:45;;;;;;;5.93;1.30;;;;;;;26.20;41.39;101022.63;5082835;28;20186;-62
2022/08/06 10:01:21;;;;;;;4.77;1.47;;;;;;;26.22;40.76;101023.84;5091824;28;20174;-62
2022/08/06 10:03:47;;;;;;;8.97;1.50;;;;;;;26.29;41.29;101025.94;5084797;28;20446;-62
2022/08/06 10:06:14;;;;;;;2.93;1.30;;;;;;;26.24;41.86;101026.34;5083249;28;20440;-62
2022/08/06 10:08:40;;;;;;;4.97;1.70;;;;;;;26.11;41.89;101034.63;5091082;28;20960;-62
2022/08/06 10:11:06;;;;;;;5.57;1.73;;;;;;;26.24;43.90;101029.25;5090171;28;20472;-62
2022/08/06 10:13:32;;;;;;;5.60;1.93;;;;;;;26.30;42.07;101024.69;5088649;28;20494;-62
2022/08/06 10:16:13;;;;;;;6.40;2.00;;;;;;;26.23;42.21;101022.63;5090662;28;20186;-62
2022/08/06 10:18:43;;;;;;;14.57;2.30;;;;;;;26.32;41.77;101030.88;5090791;28;20170;-63
2022/08/06 10:21:12;;;;;;;5.50;1.53;;;;;;;26.42;40.92;101016.38;5081086;28;20434;-62
2022/08/06 10:23:39;;;;;;;2.20;1.30;;;;;;;26.31;38.82;101032.94;5084159;28;20464;-62
2022/08/06 10:26:07;;;;;;;3.60;1.40;;;;;;;26.40;40.08;101018.84;5085106;28;20437;-62
2022/08/06 10:28:34;;;;;;;5.77;1.57;;;;;;;26.55;40.01;101025.44;5069815;28;20425;-62
2022/08/06 10:31:04;;;;;;;4.33;1.53;;;;;;;26.57;40.22;101022.97;5078349;28;20533;-62
2022/08/06 10:33:46;;;;;;;6.57;2.10;;;;;;;26.71;44.21;101008.44;5085736;28;20512;-62
2022/08/06 10:36:13;;;;;;;6.70;2.03;;;;;;;26.76;45.42;101008.00;5069969;28;20476;-62
2022/08/06 10:38:40;;;;;;;4.83;1.60;;;;;;;26.48;42.60;101008.91;5068174;28;20432;-62
2022/08/06 10:41:08;;;;;;;10.27;2.00;;;;;;;26.43;42.83;101015.13;5068996;28;20426;-62
2022/08/06 10:43:34;;;;;;;7.40;1.80;;;;;;;26.33;40.96;101013.09;5076009;28;20463;-62
2022/08/06 10:46:01;;;;;;;4.50;1.80;;;;;;;26.38;41.10;101012.66;5090403;28;20425;-61
2022/08/06 10:48:26;;;;;;;5.30;1.87;;;;;;;26.47;42.11;100994.84;5089206;28;20797;-62
2022/08/06 10:50:52;;;;;;;4.93;1.63;;;;;;;26.45;39.95;101006.03;5085244;28;20656;-62
2022/08/06 10:53:17;;;;;;;3.83;1.50;;;;;;;26.44;39.39;100987.00;5088162;28;20186;-62
2022/08/06 10:55:43;;;;;;;3.97;1.30;;;;;;;26.39;39.01;100999.81;5090324;28;20629;-62
2022/08/06 10:58:08;;;;;;;3.97;1.63;;;;;;;26.62;38.90;100999.38;5090540;28;20182;-62
2022/08/06 11:00:34;;;;;;;2.73;1.37;;;;;;;26.71;39.34;101000.59;5087816;28;20644;-63
2022/08/06 11:03:26;;;;;;;4.87;1.60;;;;;;;26.54;38.72;100991.94;5075634;28;20705;-63
2022/08/06 11:06:05;;;;;;;8.77;1.47;;;;;;;26.44;38.96;100995.69;5055142;28;20190;-62
2022/08/06 11:08:52;;;;;;;2.97;1.43;;;;;;;26.60;39.12;100999.78;5088719;28;20421;-62
2022/08/06 11:11:41;;;;;;;3.50;1.57;;;;;;;26.57;39.64;100988.22;5085004;28;20483;-62
2022/08/06 11:14:10;;;;;;;8.47;2.40;;;;;;;26.53;39.33;100994.00;5088010;28;20440;-62
2022/08/06 11:16:37;;;;;;;5.40;1.73;;;;;;;26.48;38.57;100979.94;5071881;28;20412;-63
2022/08/06 11:19:10;;;;;;;5.73;1.77;;;;;;;26.43;39.24;100979.53;5068247;28;20486;-63
2022/08/06 11:21:43;;;;;;;5.23;1.87;;;;;;;26.40;38.87;100981.19;5087752;28;20440;-63
2022/08/06 11:24:09;;;;;;;6.40;1.70;;;;;;;26.45;38.96;100979.97;5081089;28;20521;-63
2022/08/06 11:26:39;;;;;;;3.83;1.43;;;;;;;26.39;38.39;100970.88;5067810;28;20915;-63
2022/08/06 11:29:09;;;;;;;7.10;1.97;;;;;;;26.42;37.97;100972.94;5069142;28;20233;-63
2022/08/06 11:31:45;;;;;;;8.27;1.97;;;;;;;26.35;37.80;100975.81;5086910;28;20840;-63
2022/08/06 11:34:13;;;;;;;4.57;1.70;;;;;;;26.23;38.54;100982.09;5083876;28;20996;-63
2022/08/06 11:36:44;;;;;;;4.50;1.07;;;;;;;26.43;38.80;100971.69;5072384;28;21169;-63